Terminal Aerodrome Forecast
Issued by NWS Upton, NY

Home | Current Version | Previous Version | Text Only | Print | Product List | Glossary On
Versions: 1 2 3 4 5 6 7 8 9 10 11 12 13 14 15 16 17 18 19 20 21 22 23 24 25 26 27 28 29 30
567
FTUS41 KOKX 221736 RRA
TAFBDR
TAF
KBDR 221736Z 2218/2318 20007KT P6SM BKN250
     FM222200 16005KT P6SM BKN250
     FM230200 VRB03KT P6SM BKN250
     FM230900 VRB04KT 6SM BR FEW008 FEW040 BKN250
     FM231300 13007KT P6SM SCT008 BKN040=

USA.gov is the U.S. government's official web portal to all federal, state and local government web resources and services.